TimeCDT,TemperatureF,Dew PointF,Humidity,Sea Level PressureIn,VisibilityMPH,Wind Direction,Wind SpeedMPH,Gust SpeedMPH,PrecipitationIn,Events,Conditions,WindDirDegrees,DateUTC
12:15 AM,31.3,24.4,76,30.39,10.0,SW,3.5,-,N/A,,Clear,230,2013-05-03 05:15:00
12:35 AM,30.4,24.8,80,30.38,10.0,West,4.6,-,N/A,,Clear,260,2013-05-03 05:35:00
12:55 AM,30.4,24.8,80,30.38,10.0,West,6.9,-,N/A,,Clear,270,2013-05-03 05:55:00
1:15 AM,30.9,24.3,76,30.38,10.0,WSW,8.1,-,N/A,,Clear,250,2013-05-03 06:15:00
1:35 AM,29.7,23.9,79,30.37,10.0,West,8.1,-,N/A,,Clear,260,2013-05-03 06:35:00
1:55 AM,29.3,24.1,81,30.36,10.0,West,8.1,-,N/A,,Clear,260,2013-05-03 06:55:00
2:15 AM,29.8,23.9,79,30.35,10.0,West,8.1,-,N/A,,Clear,270,2013-05-03 07:15:00
2:35 AM,30.4,24.1,77,30.34,10.0,West,8.1,-,N/A,,Clear,270,2013-05-03 07:35:00
2:55 AM,30.2,24.3,79,30.34,10.0,West,9.2,-,N/A,,Clear,270,2013-05-03 07:55:00
3:15 AM,30.2,24.1,78,30.33,10.0,West,9.2,-,N/A,,Clear,270,2013-05-03 08:15:00
3:35 AM,30.2,23.9,77,30.32,10.0,West,8.1,-,N/A,,Clear,270,2013-05-03 08:35:00
3:55 AM,29.1,23.9,81,30.32,10.0,West,5.8,-,N/A,,Clear,280,2013-05-03 08:55:00
4:15 AM,30.2,23.5,76,30.31,10.0,West,9.2,-,N/A,,Clear,270,2013-05-03 09:15:00
4:35 AM,30.2,23.5,76,30.31,10.0,West,9.2,-,N/A,,Clear,260,2013-05-03 09:35:00
4:55 AM,29.1,23.4,79,30.30,10.0,West,5.8,-,N/A,,Clear,260,2013-05-03 09:55:00
5:15 AM,28.4,23.0,80,30.30,10.0,West,9.2,-,N/A,,Clear,270,2013-05-03 10:15:00
5:35 AM,28.2,23.0,81,30.30,10.0,West,9.2,-,N/A,,Clear,260,2013-05-03 10:35:00
5:55 AM,27.0,22.6,84,30.29,10.0,West,4.6,-,N/A,,Clear,280,2013-05-03 10:55:00
6:15 AM,27.0,22.5,83,30.28,10.0,West,6.9,-,N/A,,Clear,260,2013-05-03 11:15:00
6:35 AM,27.0,22.1,82,30.28,10.0,West,8.1,-,N/A,,Clear,270,2013-05-03 11:35:00
6:55 AM,27.1,22.3,82,30.28,10.0,West,6.9,-,N/A,,Clear,270,2013-05-03 11:55:00
7:15 AM,27.5,22.8,83,30.27,10.0,West,6.9,-,N/A,,Clear,270,2013-05-03 12:15:00
7:35 AM,28.0,23.9,84,30.27,10.0,West,5.8,-,N/A,,Clear,270,2013-05-03 12:35:00
7:55 AM,29.8,24.4,80,30.27,10.0,West,6.9,-,N/A,,Clear,270,2013-05-03 12:55:00
8:15 AM,30.9,24.1,76,30.27,10.0,West,6.9,-,N/A,,Clear,270,2013-05-03 13:15:00
8:35 AM,32.4,25.5,76,30.26,10.0,West,6.9,-,N/A,,Clear,270,2013-05-03 13:35:00
8:55 AM,34.0,26.4,74,30.25,10.0,West,8.1,-,N/A,,Clear,270,2013-05-03 13:55:00
9:15 AM,36.1,27.7,71,30.25,10.0,West,8.1,-,N/A,,Clear,270,2013-05-03 14:15:00
9:35 AM,37.8,28.6,69,30.24,10.0,West,6.9,-,N/A,,Clear,280,2013-05-03 14:35:00
9:55 AM,39.7,29.7,67,30.24,10.0,West,5.8,-,N/A,,Clear,280,2013-05-03 14:55:00
10:15 AM,41.5,30.4,65,30.23,10.0,West,5.8,-,N/A,,Clear,270,2013-05-03 15:15:00
10:35 AM,43.9,30.6,59,30.22,10.0,West,5.8,-,N/A,,Clear,270,2013-05-03 15:35:00
10:55 AM,45.9,28.2,50,30.22,10.0,West,4.6,-,N/A,,Clear,280,2013-05-03 15:55:00
11:15 AM,47.5,23.5,39,30.22,10.0,West,3.5,-,N/A,,Clear,270,2013-05-03 16:15:00
11:35 AM,48.0,18.5,31,30.21,10.0,Calm,Calm,-,N/A,,Clear,0,2013-05-03 16:35:00
11:55 AM,48.9,18.9,30,30.21,10.0,Calm,Calm,-,N/A,,Clear,0,2013-05-03 16:55:00
12:15 PM,49.8,19.4,30,30.20,10.0,Calm,Calm,-,N/A,,Clear,0,2013-05-03 17:15:00
12:35 PM,50.0,18.3,29,30.20,10.0,Calm,Calm,-,N/A,,Clear,0,2013-05-03 17:35:00
12:55 PM,50.4,18.3,28,30.19,10.0,Calm,Calm,-,N/A,,Clear,0,2013-05-03 17:55:00
1:15 PM,51.1,19.9,29,30.19,10.0,WNW,4.6,-,N/A,,Clear,300,2013-05-03 18:15:00
1:35 PM,52.3,21.7,30,30.17,10.0,NW,5.8,-,N/A,,Clear,310,2013-05-03 18:35:00
1:55 PM,52.9,22.3,30,30.17,10.0,WNW,4.6,-,N/A,,Clear,290,2013-05-03 18:55:00
2:15 PM,54.0,21.2,28,30.16,10.0,WNW,4.6,-,N/A,,Clear,290,2013-05-03 19:15:00
2:35 PM,54.5,21.9,28,30.16,10.0,Calm,Calm,-,N/A,,Clear,0,2013-05-03 19:35:00
2:55 PM,55.9,22.3,27,30.15,10.0,North,6.9,-,N/A,,Clear,360,2013-05-03 19:55:00
3:15 PM,56.3,22.1,27,30.15,10.0,WNW,9.2,-,N/A,,Clear,300,2013-05-03 20:15:00
3:35 PM,56.8,22.3,26,30.14,10.0,North,8.1,-,N/A,,Clear,360,2013-05-03 20:35:00
3:55 PM,57.2,22.8,27,30.13,10.0,NNE,8.1,-,N/A,,Clear,20,2013-05-03 20:55:00
4:15 PM,56.8,20.1,24,30.12,10.0,NNW,3.5,-,N/A,,Clear,340,2013-05-03 21:15:00
4:35 PM,56.7,18.5,23,30.12,10.0,NE,4.6,16.1,N/A,,Clear,50,2013-05-03 21:35:00
4:55 PM,56.7,21.7,26,30.11,10.0,NNE,9.2,-,N/A,,Clear,30,2013-05-03 21:55:00
5:15 PM,56.3,22.1,27,30.11,10.0,NNE,9.2,-,N/A,,Clear,30,2013-05-03 22:15:00
5:35 PM,56.3,22.8,27,30.10,10.0,North,11.5,-,N/A,,Clear,10,2013-05-03 22:35:00
5:55 PM,56.3,24.4,29,30.10,10.0,NNE,3.5,-,N/A,,Clear,20,2013-05-03 22:55:00
6:15 PM,55.6,24.6,30,30.10,10.0,ENE,8.1,-,N/A,,Clear,70,2013-05-03 23:15:00
6:35 PM,56.1,26.1,31,30.10,10.0,NE,12.7,-,N/A,,Clear,40,2013-05-03 23:35:00
6:55 PM,55.4,25.2,31,30.10,10.0,NE,10.4,-,N/A,,Clear,40,2013-05-03 23:55:00
7:15 PM,55.4,25.5,32,30.09,10.0,NE,10.4,-,N/A,,Clear,50,2013-05-04 00:15:00
7:35 PM,54.5,26.2,34,30.09,10.0,NE,6.9,-,N/A,,Clear,50,2013-05-04 00:35:00
7:55 PM,53.4,26.1,35,30.09,10.0,ENE,6.9,-,N/A,,Clear,60,2013-05-04 00:55:00
8:15 PM,50.5,28.9,43,30.10,10.0,East,5.8,-,N/A,,Clear,80,2013-05-04 01:15:00
8:35 PM,47.3,30.0,51,30.10,10.0,East,4.6,-,N/A,,Clear,80,2013-05-04 01:35:00
8:55 PM,46.8,29.5,51,30.10,10.0,East,4.6,-,N/A,,Clear,90,2013-05-04 01:55:00
9:15 PM,44.1,30.4,59,30.10,10.0,East,5.8,-,N/A,,Clear,90,2013-05-04 02:15:00
9:35 PM,41.5,30.6,65,30.11,10.0,East,3.5,-,N/A,,Clear,90,2013-05-04 02:35:00
9:55 PM,43.9,28.4,55,30.12,10.0,ESE,3.5,-,N/A,,Clear,110,2013-05-04 02:55:00
10:15 PM,41.9,29.1,61,30.13,10.0,ESE,6.9,-,N/A,,Clear,110,2013-05-04 03:15:00
10:35 PM,41.7,29.8,63,30.13,10.0,SE,6.9,-,N/A,,Clear,130,2013-05-04 03:35:00
10:55 PM,40.5,30.0,66,30.14,10.0,SE,3.5,-,N/A,,Clear,140,2013-05-04 03:55:00
11:15 PM,42.4,29.8,61,30.13,10.0,Calm,Calm,-,N/A,,Clear,0,2013-05-04 04:15:00
11:35 PM,39.6,29.7,68,30.13,10.0,Calm,Calm,-,N/A,,Clear,0,2013-05-04 04:35:00
11:55 PM,39.9,29.3,66,30.13,10.0,Calm,Calm,-,N/A,,Clear,0,2013-05-04 04:55:00